Hyundai Forward — 3EJY9 — position and weather

sailwx.info

Track history (hours):
 
Tides and Currents Weather Stations Pressure Air Temp Water Temp Dewpoint Dewpoint Depression Visibility Wind Speed Wind Dir Waves Ship Positions

Hyundai Forward

Last reported at 2015-Feb-18 18:25 UTC. Time now 2015-Mar-02 11:18 UTC.
Position N 31°05' E 122°31'.
Warning: this ship's position is 11 days out of date.

Length 295 m; draft 10.7 m.

Type: Cargo ship. MMSI: 372652000.

Date/timePositionNaut miles runAvg speedWind from/ knotsBaromVisibWave heightAir tempDewpointWater temp
2015-Feb-18 18:25N 31°05' E 122°31'1112.8
2015-Feb-18 17:33N 31°06' E 122°18'1515.0
2015-Feb-18 16:33N 31°14' E 122°04'1313.2
2015-Feb-18 15:33N 31°17' E 121°49'1212.3
2015-Feb-18 14:34N 31°22' E 121°36'1 0.5
2015-Feb-18 13:32N 31°22' E 121°35'0 0.0
2015-Feb-18 12:32N 31°22' E 121°35'0 0.0
2015-Feb-18 11:32N 31°22' E 121°35'0 0.0
2015-Feb-18 10:32N 31°22' E 121°35'0 0.0
2015-Feb-18 09:32N 31°22' E 121°35'0 0.0
2015-Feb-18 08:32N 31°22' E 121°35'0 0.0
2015-Feb-18 07:32N 31°22' E 121°35'0 0.0
2015-Feb-18 06:32N 31°22' E 121°35'0 0.0
2015-Feb-18 05:32N 31°22' E 121°35'0 0.0
2015-Feb-18 04:32N 31°22' E 121°35'0 0.1
2015-Feb-18 03:33N 31°23' E 121°35'3 3.2
2015-Feb-18 02:33N 31°21' E 121°39'1211.6
2015-Feb-18 01:33N 31°16' E 121°51'1111.5
2015-Feb-18 00:33N 31°14' E 122°04'1111.2
2015-Feb-17 23:33N 31°08' E 122°15'1111.0
2015-Feb-17 22:34N 31°07' E 122°28'7 7.2
2015-Feb-17 21:34N 31°07' E 122°36'1110.6
2015-Feb-17 20:33N 31°06' E 122°49'  
2015-Feb-13 20:32N 35°01' E 139°34'1515.1
2015-Feb-13 19:34N 35°12' E 139°46'1111.2
2015-Feb-13 18:33N 35°23' E 139°42'4 3.7
2015-Feb-13 17:32N 35°26' E 139°41'0 0.0
2015-Feb-13 16:32N 35°26' E 139°41'0 0.0
2015-Feb-13 15:32N 35°26' E 139°41'0 0.0
2015-Feb-13 14:32N 35°26' E 139°41'0 0.0
2015-Feb-13 13:32N 35°26' E 139°41'0 0.0
2015-Feb-13 12:32N 35°26' E 139°41'0 0.0
2015-Feb-13 11:32N 35°26' E 139°41'3 2.8
2015-Feb-13 10:33N 35°25' E 139°44'10 9.8
2015-Feb-13 09:33N 35°16' E 139°47'1211.8
2015-Feb-13 08:34N 35°04' E 139°44'1413.5
2015-Feb-13 07:34N 34°51' E 139°45'1514.1
2015-Feb-13 06:31N 34°53' E 140°03'  
Track history (hours):
 
Tides and Currents Weather Stations Pressure Air Temp Water Temp Dewpoint Dewpoint Depression Visibility Wind Speed Wind Dir Waves Ship Positions

Hyundai Forward

Last reported at 2015-Feb-18 18:25 UTC. Time now 2015-Mar-02 11:18 UTC.
Position N 31°05' E 122°31'.
Warning: this ship's position is 11 days out of date.

Length 295 m; draft 10.7 m.

Type: Cargo ship. MMSI: 372652000.

Date/timePositionNaut miles runAvg speedWind from/ knotsBaromVisibWave heightAir tempDewpointWater temp
2015-Feb-18 18:25N 31°05' E 122°31'1112.8
2015-Feb-18 17:33N 31°06' E 122°18'1515.0
2015-Feb-18 16:33N 31°14' E 122°04'1313.2
2015-Feb-18 15:33N 31°17' E 121°49'1212.3
2015-Feb-18 14:34N 31°22' E 121°36'1 0.5
2015-Feb-18 13:32N 31°22' E 121°35'0 0.0
2015-Feb-18 12:32N 31°22' E 121°35'0 0.0
2015-Feb-18 11:32N 31°22' E 121°35'0 0.0
2015-Feb-18 10:32N 31°22' E 121°35'0 0.0
2015-Feb-18 09:32N 31°22' E 121°35'0 0.0
2015-Feb-18 08:32N 31°22' E 121°35'0 0.0
2015-Feb-18 07:32N 31°22' E 121°35'0 0.0
2015-Feb-18 06:32N 31°22' E 121°35'0 0.0
2015-Feb-18 05:32N 31°22' E 121°35'0 0.0
2015-Feb-18 04:32N 31°22' E 121°35'0 0.1
2015-Feb-18 03:33N 31°23' E 121°35'3 3.2
2015-Feb-18 02:33N 31°21' E 121°39'1211.6
2015-Feb-18 01:33N 31°16' E 121°51'1111.5
2015-Feb-18 00:33N 31°14' E 122°04'1111.2
2015-Feb-17 23:33N 31°08' E 122°15'1111.0
2015-Feb-17 22:34N 31°07' E 122°28'7 7.2
2015-Feb-17 21:34N 31°07' E 122°36'1110.6
2015-Feb-17 20:33N 31°06' E 122°49'  
2015-Feb-13 20:32N 35°01' E 139°34'1515.1
2015-Feb-13 19:34N 35°12' E 139°46'1111.2
2015-Feb-13 18:33N 35°23' E 139°42'4 3.7
2015-Feb-13 17:32N 35°26' E 139°41'0 0.0
2015-Feb-13 16:32N 35°26' E 139°41'0 0.0
2015-Feb-13 15:32N 35°26' E 139°41'0 0.0
2015-Feb-13 14:32N 35°26' E 139°41'0 0.0
2015-Feb-13 13:32N 35°26' E 139°41'0 0.0
2015-Feb-13 12:32N 35°26' E 139°41'0 0.0
2015-Feb-13 11:32N 35°26' E 139°41'3 2.8
2015-Feb-13 10:33N 35°25' E 139°44'10 9.8
2015-Feb-13 09:33N 35°16' E 139°47'1211.8
2015-Feb-13 08:34N 35°04' E 139°44'1413.5
2015-Feb-13 07:34N 34°51' E 139°45'1514.1
2015-Feb-13 06:31N 34°53' E 140°03'  

Dump ship's entire track history